sensor_id;sensor_type;location;lat;lon;timestamp;P1;durP1;ratioP1;P2;durP2;ratioP2
45114;SDS011;30877;43.706;10.780;2022-11-11T00:00:33;9.05;;;5.47;;
45114;SDS011;30877;43.706;10.780;2022-11-11T00:06:10;8.55;;;6.50;;
45114;SDS011;30877;43.706;10.780;2022-11-11T00:08:58;10.07;;;5.95;;
45114;SDS011;30877;43.706;10.780;2022-11-11T00:11:44;6.70;;;5.85;;
45114;SDS011;30877;43.706;10.780;2022-11-11T00:14:32;8.02;;;5.63;;
45114;SDS011;30877;43.706;10.780;2022-11-11T00:17:18;8.93;;;6.57;;
45114;SDS011;30877;43.706;10.780;2022-11-11T00:20:24;6.90;;;5.53;;
45114;SDS011;30877;43.706;10.780;2022-11-11T00:23:29;8.98;;;6.80;;
45114;SDS011;30877;43.706;10.780;2022-11-11T00:26:34;7.30;;;6.10;;
45114;SDS011;30877;43.706;10.780;2022-11-11T00:29:25;7.63;;;6.10;;
45114;SDS011;30877;43.706;10.780;2022-11-11T00:32:11;9.65;;;6.55;;
45114;SDS011;30877;43.706;10.780;2022-11-11T00:35:16;6.15;;;5.32;;
45114;SDS011;30877;43.706;10.780;2022-11-11T00:38:22;9.30;;;6.03;;
45114;SDS011;30877;43.706;10.780;2022-11-11T00:41:28;7.50;;;5.93;;
45114;SDS011;30877;43.706;10.780;2022-11-11T00:44:14;7.65;;;5.90;;
45114;SDS011;30877;43.706;10.780;2022-11-11T00:47:00;8.53;;;5.90;;
45114;SDS011;30877;43.706;10.780;2022-11-11T00:50:06;6.95;;;5.40;;
45114;SDS011;30877;43.706;10.780;2022-11-11T00:53:16;7.47;;;5.63;;
45114;SDS011;30877;43.706;10.780;2022-11-11T00:56:12;8.25;;;5.75;;
45114;SDS011;30877;43.706;10.780;2022-11-11T00:58:58;6.95;;;6.22;;
45114;SDS011;30877;43.706;10.780;2022-11-11T01:01:45;7.65;;;5.70;;
45114;SDS011;30877;43.706;10.780;2022-11-11T01:04:31;10.35;;;6.32;;
45114;SDS011;30877;43.706;10.780;2022-11-11T01:07:18;7.50;;;6.50;;
45114;SDS011;30877;43.706;10.780;2022-11-11T01:10:05;8.80;;;6.53;;
45114;SDS011;30877;43.706;10.780;2022-11-11T01:15:58;10.05;;;6.72;;
45114;SDS011;30877;43.706;10.780;2022-11-11T01:18:45;7.15;;;6.30;;
45114;SDS011;30877;43.706;10.780;2022-11-11T01:21:32;9.15;;;5.85;;
45114;SDS011;30877;43.706;10.780;2022-11-11T01:24:18;5.80;;;5.20;;
45114;SDS011;30877;43.706;10.780;2022-11-11T01:27:05;7.87;;;6.50;;
45114;SDS011;30877;43.706;10.780;2022-11-11T01:29:53;8.82;;;6.05;;
45114;SDS011;30877;43.706;10.780;2022-11-11T01:32:39;9.25;;;6.68;;
45114;SDS011;30877;43.706;10.780;2022-11-11T01:35:26;8.07;;;6.40;;
45114;SDS011;30877;43.706;10.780;2022-11-11T01:40:59;9.27;;;6.63;;
45114;SDS011;30877;43.706;10.780;2022-11-11T01:43:46;9.40;;;6.28;;
45114;SDS011;30877;43.706;10.780;2022-11-11T01:46:35;7.63;;;5.72;;
45114;SDS011;30877;43.706;10.780;2022-11-11T01:49:25;7.80;;;5.93;;
45114;SDS011;30877;43.706;10.780;2022-11-11T01:52:17;6.90;;;5.57;;
45114;SDS011;30877;43.706;10.780;2022-11-11T01:55:08;7.22;;;5.43;;
45114;SDS011;30877;43.706;10.780;2022-11-11T01:57:58;6.05;;;5.43;;
45114;SDS011;30877;43.706;10.780;2022-11-11T02:00:48;8.13;;;5.68;;
45114;SDS011;30877;43.706;10.780;2022-11-11T02:03:37;8.88;;;5.60;;
45114;SDS011;30877;43.706;10.780;2022-11-11T02:06:25;5.30;;;4.55;;
45114;SDS011;30877;43.706;10.780;2022-11-11T02:09:14;6.63;;;5.65;;
45114;SDS011;30877;43.706;10.780;2022-11-11T02:15:09;6.90;;;4.85;;
45114;SDS011;30877;43.706;10.780;2022-11-11T02:17:57;5.43;;;4.45;;
45114;SDS011;30877;43.706;10.780;2022-11-11T02:20:46;6.00;;;4.70;;
45114;SDS011;30877;43.706;10.780;2022-11-11T02:23:34;7.28;;;4.63;;
45114;SDS011;30877;43.706;10.780;2022-11-11T02:26:26;5.47;;;4.55;;
45114;SDS011;30877;43.706;10.780;2022-11-11T02:29:16;4.45;;;4.03;;
45114;SDS011;30877;43.706;10.780;2022-11-11T02:32:04;6.20;;;3.83;;
45114;SDS011;30877;43.706;10.780;2022-11-11T02:34:51;4.68;;;4.18;;
45114;SDS011;30877;43.706;10.780;2022-11-11T02:37:37;4.40;;;3.88;;
45114;SDS011;30877;43.706;10.780;2022-11-11T02:40:25;4.55;;;3.90;;
45114;SDS011;30877;43.706;10.780;2022-11-11T02:43:17;5.10;;;4.28;;
45114;SDS011;30877;43.706;10.780;2022-11-11T02:46:04;5.05;;;3.67;;
45114;SDS011;30877;43.706;10.780;2022-11-11T02:48:52;5.82;;;3.85;;
45114;SDS011;30877;43.706;10.780;2022-11-11T02:51:38;5.07;;;4.57;;
45114;SDS011;30877;43.706;10.780;2022-11-11T02:54:25;4.32;;;3.92;;
45114;SDS011;30877;43.706;10.780;2022-11-11T02:57:12;4.90;;;3.72;;
45114;SDS011;30877;43.706;10.780;2022-11-11T03:00:00;4.22;;;3.45;;
45114;SDS011;30877;43.706;10.780;2022-11-11T03:02:48;6.20;;;3.67;;
45114;SDS011;30877;43.706;10.780;2022-11-11T03:05:34;4.05;;;3.60;;
45114;SDS011;30877;43.706;10.780;2022-11-11T03:11:09;5.95;;;4.45;;
45114;SDS011;30877;43.706;10.780;2022-11-11T03:16:44;4.15;;;3.50;;
45114;SDS011;30877;43.706;10.780;2022-11-11T03:19:49;6.03;;;3.75;;
45114;SDS011;30877;43.706;10.780;2022-11-11T03:22:35;5.18;;;3.78;;
45114;SDS011;30877;43.706;10.780;2022-11-11T03:25:40;4.97;;;4.05;;
45114;SDS011;30877;43.706;10.780;2022-11-11T03:28:28;5.50;;;3.95;;
45114;SDS011;30877;43.706;10.780;2022-11-11T03:31:14;5.18;;;4.03;;
45114;SDS011;30877;43.706;10.780;2022-11-11T03:34:02;4.20;;;3.80;;
45114;SDS011;30877;43.706;10.780;2022-11-11T03:37:04;4.85;;;4.20;;
45114;SDS011;30877;43.706;10.780;2022-11-11T03:40:10;5.03;;;3.53;;
45114;SDS011;30877;43.706;10.780;2022-11-11T03:42:58;4.15;;;3.42;;
45114;SDS011;30877;43.706;10.780;2022-11-11T03:45:49;5.28;;;3.45;;
45114;SDS011;30877;43.706;10.780;2022-11-11T03:51:24;4.53;;;3.38;;
45114;SDS011;30877;43.706;10.780;2022-11-11T03:54:10;5.38;;;3.47;;
45114;SDS011;30877;43.706;10.780;2022-11-11T03:56:57;6.15;;;3.83;;
45114;SDS011;30877;43.706;10.780;2022-11-11T04:00:03;5.03;;;3.63;;
45114;SDS011;30877;43.706;10.780;2022-11-11T04:03:01;4.20;;;3.58;;
45114;SDS011;30877;43.706;10.780;2022-11-11T04:06:08;6.95;;;4.70;;
45114;SDS011;30877;43.706;10.780;2022-11-11T04:09:15;5.88;;;4.00;;
45114;SDS011;30877;43.706;10.780;2022-11-11T04:12:21;4.28;;;3.88;;
45114;SDS011;30877;43.706;10.780;2022-11-11T04:15:08;7.00;;;4.30;;
45114;SDS011;30877;43.706;10.780;2022-11-11T04:18:17;4.03;;;3.63;;
45114;SDS011;30877;43.706;10.780;2022-11-11T04:21:24;4.95;;;3.85;;
45114;SDS011;30877;43.706;10.780;2022-11-11T04:24:30;7.03;;;5.68;;
45114;SDS011;30877;43.706;10.780;2022-11-11T04:27:35;5.13;;;4.10;;
45114;SDS011;30877;43.706;10.780;2022-11-11T04:30:21;5.07;;;4.27;;
45114;SDS011;30877;43.706;10.780;2022-11-11T04:33:08;7.35;;;4.20;;
45114;SDS011;30877;43.706;10.780;2022-11-11T04:35:55;4.50;;;3.88;;
45114;SDS011;30877;43.706;10.780;2022-11-11T04:38:41;4.27;;;3.87;;
45114;SDS011;30877;43.706;10.780;2022-11-11T04:41:48;4.65;;;3.45;;
45114;SDS011;30877;43.706;10.780;2022-11-11T04:44:54;4.57;;;3.60;;
45114;SDS011;30877;43.706;10.780;2022-11-11T04:48:00;6.60;;;3.85;;
45114;SDS011;30877;43.706;10.780;2022-11-11T04:50:48;5.43;;;3.40;;
45114;SDS011;30877;43.706;10.780;2022-11-11T04:53:35;6.85;;;4.00;;
45114;SDS011;30877;43.706;10.780;2022-11-11T04:56:21;4.77;;;4.10;;
45114;SDS011;30877;43.706;10.780;2022-11-11T04:59:28;8.35;;;3.70;;
45114;SDS011;30877;43.706;10.780;2022-11-11T05:02:15;4.20;;;3.80;;
45114;SDS011;30877;43.706;10.780;2022-11-11T05:05:19;4.43;;;4.03;;
45114;SDS011;30877;43.706;10.780;2022-11-11T05:08:06;4.95;;;4.10;;
45114;SDS011;30877;43.706;10.780;2022-11-11T05:11:11;6.35;;;3.38;;
45114;SDS011;30877;43.706;10.780;2022-11-11T05:13:58;5.28;;;3.78;;
45114;SDS011;30877;43.706;10.780;2022-11-11T05:17:07;6.70;;;4.10;;
45114;SDS011;30877;43.706;10.780;2022-11-11T05:20:13;11.50;;;5.35;;
45114;SDS011;30877;43.706;10.780;2022-11-11T05:23:23;4.60;;;3.95;;
45114;SDS011;30877;43.706;10.780;2022-11-11T05:26:29;6.35;;;3.80;;
45114;SDS011;30877;43.706;10.780;2022-11-11T05:29:16;4.72;;;3.85;;
45114;SDS011;30877;43.706;10.780;2022-11-11T05:32:03;5.22;;;4.47;;
45114;SDS011;30877;43.706;10.780;2022-11-11T05:34:52;6.32;;;4.18;;
45114;SDS011;30877;43.706;10.780;2022-11-11T05:37:39;4.32;;;3.72;;
45114;SDS011;30877;43.706;10.780;2022-11-11T05:40:26;5.63;;;4.10;;
45114;SDS011;30877;43.706;10.780;2022-11-11T05:43:12;5.30;;;4.57;;
45114;SDS011;30877;43.706;10.780;2022-11-11T05:45:59;4.63;;;3.80;;
45114;SDS011;30877;43.706;10.780;2022-11-11T05:48:46;5.93;;;4.35;;
45114;SDS011;30877;43.706;10.780;2022-11-11T05:51:52;7.55;;;4.43;;
45114;SDS011;30877;43.706;10.780;2022-11-11T05:54:40;4.85;;;4.25;;
45114;SDS011;30877;43.706;10.780;2022-11-11T05:57:26;4.82;;;4.32;;
45114;SDS011;30877;43.706;10.780;2022-11-11T06:00:13;4.55;;;4.05;;
45114;SDS011;30877;43.706;10.780;2022-11-11T06:03:01;6.60;;;4.68;;
45114;SDS011;30877;43.706;10.780;2022-11-11T06:05:48;4.10;;;3.70;;
45114;SDS011;30877;43.706;10.780;2022-11-11T06:08:39;5.80;;;4.25;;
45114;SDS011;30877;43.706;10.780;2022-11-11T06:11:25;8.43;;;4.15;;
45114;SDS011;30877;43.706;10.780;2022-11-11T06:14:16;5.78;;;3.97;;
45114;SDS011;30877;43.706;10.780;2022-11-11T06:17:03;6.07;;;4.20;;
45114;SDS011;30877;43.706;10.780;2022-11-11T06:19:49;6.10;;;3.90;;
45114;SDS011;30877;43.706;10.780;2022-11-11T06:22:36;6.95;;;3.92;;
45114;SDS011;30877;43.706;10.780;2022-11-11T06:25:42;7.05;;;4.05;;
45114;SDS011;30877;43.706;10.780;2022-11-11T06:28:48;5.38;;;3.78;;
45114;SDS011;30877;43.706;10.780;2022-11-11T06:31:36;4.80;;;3.40;;
45114;SDS011;30877;43.706;10.780;2022-11-11T06:34:22;5.45;;;3.83;;
45114;SDS011;30877;43.706;10.780;2022-11-11T06:37:08;4.25;;;3.85;;
45114;SDS011;30877;43.706;10.780;2022-11-11T06:39:55;5.25;;;3.85;;
45114;SDS011;30877;43.706;10.780;2022-11-11T06:42:43;6.30;;;3.92;;
45114;SDS011;30877;43.706;10.780;2022-11-11T06:45:30;7.25;;;4.25;;
45114;SDS011;30877;43.706;10.780;2022-11-11T06:48:18;4.93;;;4.20;;
45114;SDS011;30877;43.706;10.780;2022-11-11T06:51:05;5.43;;;3.80;;
45114;SDS011;30877;43.706;10.780;2022-11-11T06:53:51;5.75;;;4.07;;
45114;SDS011;30877;43.706;10.780;2022-11-11T06:56:38;6.20;;;3.97;;
45114;SDS011;30877;43.706;10.780;2022-11-11T06:59:26;8.00;;;4.25;;
45114;SDS011;30877;43.706;10.780;2022-11-11T07:02:13;9.10;;;4.68;;
45114;SDS011;30877;43.706;10.780;2022-11-11T07:04:59;11.10;;;4.57;;
45114;SDS011;30877;43.706;10.780;2022-11-11T07:07:46;7.60;;;4.38;;
45114;SDS011;30877;43.706;10.780;2022-11-11T07:10:33;7.82;;;4.50;;
45114;SDS011;30877;43.706;10.780;2022-11-11T07:13:22;9.23;;;4.32;;
45114;SDS011;30877;43.706;10.780;2022-11-11T07:16:11;5.72;;;4.43;;
45114;SDS011;30877;43.706;10.780;2022-11-11T07:18:58;7.88;;;4.30;;
45114;SDS011;30877;43.706;10.780;2022-11-11T07:21:44;7.77;;;4.23;;
45114;SDS011;30877;43.706;10.780;2022-11-11T07:24:31;8.20;;;4.47;;
45114;SDS011;30877;43.706;10.780;2022-11-11T07:27:17;6.57;;;4.53;;
45114;SDS011;30877;43.706;10.780;2022-11-11T07:30:04;9.90;;;4.60;;
45114;SDS011;30877;43.706;10.780;2022-11-11T07:32:53;6.28;;;4.20;;
45114;SDS011;30877;43.706;10.780;2022-11-11T07:35:39;5.78;;;4.25;;
45114;SDS011;30877;43.706;10.780;2022-11-11T07:38:26;8.25;;;4.25;;
45114;SDS011;30877;43.706;10.780;2022-11-11T07:41:12;9.32;;;4.63;;
45114;SDS011;30877;43.706;10.780;2022-11-11T07:43:59;5.43;;;3.92;;
45114;SDS011;30877;43.706;10.780;2022-11-11T07:46:46;7.20;;;4.50;;
45114;SDS011;30877;43.706;10.780;2022-11-11T07:49:34;6.13;;;4.88;;
45114;SDS011;30877;43.706;10.780;2022-11-11T07:52:21;8.60;;;4.63;;
45114;SDS011;30877;43.706;10.780;2022-11-11T07:57:56;8.10;;;4.32;;
45114;SDS011;30877;43.706;10.780;2022-11-11T08:00:42;6.70;;;4.28;;
45114;SDS011;30877;43.706;10.780;2022-11-11T08:03:29;11.70;;;5.03;;
45114;SDS011;30877;43.706;10.780;2022-11-11T08:06:17;6.43;;;3.40;;
45114;SDS011;30877;43.706;10.780;2022-11-11T08:09:05;10.02;;;5.22;;
45114;SDS011;30877;43.706;10.780;2022-11-11T08:11:51;6.35;;;5.35;;
45114;SDS011;30877;43.706;10.780;2022-11-11T08:14:56;6.22;;;5.40;;
45114;SDS011;30877;43.706;10.780;2022-11-11T08:17:50;7.50;;;5.43;;
45114;SDS011;30877;43.706;10.780;2022-11-11T08:20:37;7.10;;;5.43;;
45114;SDS011;30877;43.706;10.780;2022-11-11T08:23:31;10.88;;;5.18;;
45114;SDS011;30877;43.706;10.780;2022-11-11T08:26:38;7.72;;;5.63;;
45114;SDS011;30877;43.706;10.780;2022-11-11T08:29:24;7.80;;;6.35;;
45114;SDS011;30877;43.706;10.780;2022-11-11T08:32:11;7.38;;;5.72;;
45114;SDS011;30877;43.706;10.780;2022-11-11T08:34:58;7.88;;;5.13;;
45114;SDS011;30877;43.706;10.780;2022-11-11T08:37:44;8.07;;;4.27;;
45114;SDS011;30877;43.706;10.780;2022-11-11T08:40:32;4.50;;;3.55;;
45114;SDS011;30877;43.706;10.780;2022-11-11T08:43:19;5.10;;;3.17;;
45114;SDS011;30877;43.706;10.780;2022-11-11T08:46:07;3.83;;;2.80;;
45114;SDS011;30877;43.706;10.780;2022-11-11T08:48:56;4.15;;;2.05;;
45114;SDS011;30877;43.706;10.780;2022-11-11T08:51:43;3.20;;;1.88;;
45114;SDS011;30877;43.706;10.780;2022-11-11T08:54:29;2.42;;;1.67;;
45114;SDS011;30877;43.706;10.780;2022-11-11T08:57:18;3.70;;;1.92;;
45114;SDS011;30877;43.706;10.780;2022-11-11T09:00:05;3.53;;;1.88;;
45114;SDS011;30877;43.706;10.780;2022-11-11T09:02:53;3.63;;;3.13;;
45114;SDS011;30877;43.706;10.780;2022-11-11T09:05:40;2.97;;;1.75;;
45114;SDS011;30877;43.706;10.780;2022-11-11T09:08:26;3.00;;;1.83;;
45114;SDS011;30877;43.706;10.780;2022-11-11T09:14:01;2.30;;;1.10;;
45114;SDS011;30877;43.706;10.780;2022-11-11T09:16:48;1.55;;;0.98;;
45114;SDS011;30877;43.706;10.780;2022-11-11T09:19:34;3.08;;;1.10;;
45114;SDS011;30877;43.706;10.780;2022-11-11T09:22:21;1.55;;;0.80;;
45114;SDS011;30877;43.706;10.780;2022-11-11T09:25:07;2.15;;;1.05;;
45114;SDS011;30877;43.706;10.780;2022-11-11T09:27:54;1.25;;;0.82;;
45114;SDS011;30877;43.706;10.780;2022-11-11T09:30:42;1.90;;;1.10;;
45114;SDS011;30877;43.706;10.780;2022-11-11T09:33:29;1.33;;;1.17;;
45114;SDS011;30877;43.706;10.780;2022-11-11T09:36:15;1.92;;;1.10;;
45114;SDS011;30877;43.706;10.780;2022-11-11T09:41:51;2.67;;;1.00;;
45114;SDS011;30877;43.706;10.780;2022-11-11T09:44:57;1.05;;;0.90;;
45114;SDS011;30877;43.706;10.780;2022-11-11T09:48:01;6.40;;;5.57;;
45114;SDS011;30877;43.706;10.780;2022-11-11T09:51:00;2.35;;;1.17;;
45114;SDS011;30877;43.706;10.780;2022-11-11T09:53:50;1.70;;;0.90;;
45114;SDS011;30877;43.706;10.780;2022-11-11T09:56:40;2.03;;;0.80;;
45114;SDS011;30877;43.706;10.780;2022-11-11T09:59:27;1.65;;;0.80;;
45114;SDS011;30877;43.706;10.780;2022-11-11T10:02:25;0.90;;;0.60;;
45114;SDS011;30877;43.706;10.780;2022-11-11T10:05:20;2.05;;;0.73;;
45114;SDS011;30877;43.706;10.780;2022-11-11T10:08:11;1.05;;;0.75;;
45114;SDS011;30877;43.706;10.780;2022-11-11T10:11:00;1.58;;;0.82;;
45114;SDS011;30877;43.706;10.780;2022-11-11T10:13:51;0.88;;;0.70;;
45114;SDS011;30877;43.706;10.780;2022-11-11T10:16:40;5.63;;;1.23;;
45114;SDS011;30877;43.706;10.780;2022-11-11T10:19:36;2.40;;;1.10;;
45114;SDS011;30877;43.706;10.780;2022-11-11T10:22:33;3.17;;;0.80;;
45114;SDS011;30877;43.706;10.780;2022-11-11T10:25:21;1.23;;;0.90;;
45114;SDS011;30877;43.706;10.780;2022-11-11T10:28:12;2.17;;;0.68;;
45114;SDS011;30877;43.706;10.780;2022-11-11T10:31:03;1.17;;;0.77;;
45114;SDS011;30877;43.706;10.780;2022-11-11T10:33:56;0.98;;;0.70;;
45114;SDS011;30877;43.706;10.780;2022-11-11T10:36:45;2.17;;;0.73;;
45114;SDS011;30877;43.706;10.780;2022-11-11T10:39:41;1.58;;;0.70;;
45114;SDS011;30877;43.706;10.780;2022-11-11T10:42:36;1.67;;;0.80;;
45114;SDS011;30877;43.706;10.780;2022-11-11T10:45:28;1.20;;;0.80;;
45114;SDS011;30877;43.706;10.780;2022-11-11T10:48:24;1.10;;;0.80;;
45114;SDS011;30877;43.706;10.780;2022-11-11T10:51:29;1.27;;;0.70;;
45114;SDS011;30877;43.706;10.780;2022-11-11T10:54:23;1.40;;;0.70;;
45114;SDS011;30877;43.706;10.780;2022-11-11T10:57:16;1.27;;;0.88;;
45114;SDS011;30877;43.706;10.780;2022-11-11T11:00:09;2.05;;;1.10;;
45114;SDS011;30877;43.706;10.780;2022-11-11T11:02:58;1.00;;;0.63;;
45114;SDS011;30877;43.706;10.780;2022-11-11T11:05:54;2.65;;;2.10;;
45114;SDS011;30877;43.706;10.780;2022-11-11T11:08:48;1.85;;;0.75;;
45114;SDS011;30877;43.706;10.780;2022-11-11T11:11:38;0.80;;;0.60;;
45114;SDS011;30877;43.706;10.780;2022-11-11T11:14:31;1.10;;;0.90;;
45114;SDS011;30877;43.706;10.780;2022-11-11T11:17:23;3.38;;;0.80;;
45114;SDS011;30877;43.706;10.780;2022-11-11T11:20:15;2.55;;;1.00;;
45114;SDS011;30877;43.706;10.780;2022-11-11T11:23:05;1.02;;;0.88;;
45114;SDS011;30877;43.706;10.780;2022-11-11T11:25:52;0.90;;;0.60;;
45114;SDS011;30877;43.706;10.780;2022-11-11T11:28:54;1.42;;;0.90;;
45114;SDS011;30877;43.706;10.780;2022-11-11T11:31:43;2.03;;;0.70;;
45114;SDS011;30877;43.706;10.780;2022-11-11T11:34:41;0.90;;;0.70;;
45114;SDS011;30877;43.706;10.780;2022-11-11T11:37:29;1.73;;;1.05;;
45114;SDS011;30877;43.706;10.780;2022-11-11T11:40:16;1.73;;;0.60;;
45114;SDS011;30877;43.706;10.780;2022-11-11T11:43:02;2.25;;;0.90;;
45114;SDS011;30877;43.706;10.780;2022-11-11T11:46:18;1.85;;;0.98;;
45114;SDS011;30877;43.706;10.780;2022-11-11T11:49:15;2.42;;;1.10;;
45114;SDS011;30877;43.706;10.780;2022-11-11T11:52:12;1.33;;;0.77;;
45114;SDS011;30877;43.706;10.780;2022-11-11T11:55:04;1.58;;;0.73;;
45114;SDS011;30877;43.706;10.780;2022-11-11T11:57:59;1.58;;;0.85;;
45114;SDS011;30877;43.706;10.780;2022-11-11T12:00:59;1.45;;;0.80;;
45114;SDS011;30877;43.706;10.780;2022-11-11T12:07:18;0.60;;;0.60;;
45114;SDS011;30877;43.706;10.780;2022-11-11T12:10:21;2.97;;;0.73;;
45114;SDS011;30877;43.706;10.780;2022-11-11T12:13:16;1.33;;;0.85;;
45114;SDS011;30877;43.706;10.780;2022-11-11T12:16:16;0.88;;;0.60;;
45114;SDS011;30877;43.706;10.780;2022-11-11T12:19:23;0.88;;;0.60;;
45114;SDS011;30877;43.706;10.780;2022-11-11T12:22:31;0.70;;;0.60;;
45114;SDS011;30877;43.706;10.780;2022-11-11T12:25:35;15.60;;;12.45;;
45114;SDS011;30877;43.706;10.780;2022-11-11T12:28:32;3.25;;;1.98;;
45114;SDS011;30877;43.706;10.780;2022-11-11T12:31:35;1.65;;;0.70;;
45114;SDS011;30877;43.706;10.780;2022-11-11T12:34:37;0.88;;;0.80;;
45114;SDS011;30877;43.706;10.780;2022-11-11T12:37:50;1.10;;;0.80;;
45114;SDS011;30877;43.706;10.780;2022-11-11T12:40:50;1.13;;;0.90;;
45114;SDS011;30877;43.706;10.780;2022-11-11T12:43:46;0.77;;;0.70;;
45114;SDS011;30877;43.706;10.780;2022-11-11T12:46:42;1.33;;;0.77;;
45114;SDS011;30877;43.706;10.780;2022-11-11T12:49:39;1.77;;;0.75;;
45114;SDS011;30877;43.706;10.780;2022-11-11T12:52:37;0.98;;;0.50;;
45114;SDS011;30877;43.706;10.780;2022-11-11T12:55:38;1.83;;;0.80;;
45114;SDS011;30877;43.706;10.780;2022-11-11T12:58:30;1.58;;;0.82;;
45114;SDS011;30877;43.706;10.780;2022-11-11T13:01:29;2.08;;;1.00;;
45114;SDS011;30877;43.706;10.780;2022-11-11T13:04:32;0.90;;;0.80;;
45114;SDS011;30877;43.706;10.780;2022-11-11T13:10:56;2.67;;;0.70;;
45114;SDS011;30877;43.706;10.780;2022-11-11T13:13:50;1.10;;;0.75;;
45114;SDS011;30877;43.706;10.780;2022-11-11T13:16:45;1.67;;;0.70;;
45114;SDS011;30877;43.706;10.780;2022-11-11T13:19:35;0.93;;;0.60;;
45114;SDS011;30877;43.706;10.780;2022-11-11T13:22:27;0.80;;;0.65;;
45114;SDS011;30877;43.706;10.780;2022-11-11T13:25:20;2.30;;;0.75;;
45114;SDS011;30877;43.706;10.780;2022-11-11T13:28:12;2.85;;;0.80;;
45114;SDS011;30877;43.706;10.780;2022-11-11T13:31:07;1.92;;;0.63;;
45114;SDS011;30877;43.706;10.780;2022-11-11T13:34:02;3.05;;;1.98;;
45114;SDS011;30877;43.706;10.780;2022-11-11T13:36:54;6.57;;;4.90;;
45114;SDS011;30877;43.706;10.780;2022-11-11T13:39:43;1.17;;;0.70;;
45114;SDS011;30877;43.706;10.780;2022-11-11T13:42:33;1.13;;;0.80;;
45114;SDS011;30877;43.706;10.780;2022-11-11T13:45:25;0.68;;;0.50;;
45114;SDS011;30877;43.706;10.780;2022-11-11T13:48:18;1.80;;;0.70;;
45114;SDS011;30877;43.706;10.780;2022-11-11T13:51:10;2.67;;;0.90;;
45114;SDS011;30877;43.706;10.780;2022-11-11T13:54:04;0.73;;;0.60;;
45114;SDS011;30877;43.706;10.780;2022-11-11T13:57:05;2.10;;;0.75;;
45114;SDS011;30877;43.706;10.780;2022-11-11T14:00:02;2.47;;;0.97;;
45114;SDS011;30877;43.706;10.780;2022-11-11T14:12:51;0.93;;;0.57;;
45114;SDS011;30877;43.706;10.780;2022-11-11T14:15:40;1.77;;;0.60;;
45114;SDS011;30877;43.706;10.780;2022-11-11T14:18:38;0.60;;;0.52;;
45114;SDS011;30877;43.706;10.780;2022-11-11T14:21:45;1.08;;;0.70;;
45114;SDS011;30877;43.706;10.780;2022-11-11T14:24:37;0.90;;;0.70;;
45114;SDS011;30877;43.706;10.780;2022-11-11T14:27:26;1.25;;;0.70;;
45114;SDS011;30877;43.706;10.780;2022-11-11T14:30:33;2.03;;;0.63;;
45114;SDS011;30877;43.706;10.780;2022-11-11T14:33:25;3.08;;;1.15;;
45114;SDS011;30877;43.706;10.780;2022-11-11T14:36:26;1.10;;;0.63;;
45114;SDS011;30877;43.706;10.780;2022-11-11T14:39:26;1.52;;;0.65;;
45114;SDS011;30877;43.706;10.780;2022-11-11T14:42:45;7.93;;;6.40;;
45114;SDS011;30877;43.706;10.780;2022-11-11T14:48:49;2.15;;;1.60;;
45114;SDS011;30877;43.706;10.780;2022-11-11T14:51:47;2.13;;;1.90;;
45114;SDS011;30877;43.706;10.780;2022-11-11T15:00:42;3.20;;;1.45;;
45114;SDS011;30877;43.706;10.780;2022-11-11T15:03:32;2.17;;;1.40;;
45114;SDS011;30877;43.706;10.780;2022-11-11T15:06:23;1.45;;;1.15;;
45114;SDS011;30877;43.706;10.780;2022-11-11T15:09:15;3.47;;;1.45;;
45114;SDS011;30877;43.706;10.780;2022-11-11T15:12:21;2.00;;;1.52;;
45114;SDS011;30877;43.706;10.780;2022-11-11T15:15:18;2.78;;;2.47;;
45114;SDS011;30877;43.706;10.780;2022-11-11T15:18:13;2.80;;;1.85;;
45114;SDS011;30877;43.706;10.780;2022-11-11T15:21:12;2.08;;;1.70;;
45114;SDS011;30877;43.706;10.780;2022-11-11T15:24:11;2.28;;;1.40;;
45114;SDS011;30877;43.706;10.780;2022-11-11T15:27:06;2.72;;;1.60;;
45114;SDS011;30877;43.706;10.780;2022-11-11T15:30:09;1.90;;;1.30;;
45114;SDS011;30877;43.706;10.780;2022-11-11T15:33:01;5.05;;;1.77;;
45114;SDS011;30877;43.706;10.780;2022-11-11T15:35:56;4.07;;;1.67;;
45114;SDS011;30877;43.706;10.780;2022-11-11T15:38:54;3.25;;;1.73;;
45114;SDS011;30877;43.706;10.780;2022-11-11T15:41:45;2.55;;;1.60;;
45114;SDS011;30877;43.706;10.780;2022-11-11T15:44:33;2.38;;;1.42;;
45114;SDS011;30877;43.706;10.780;2022-11-11T15:47:21;6.47;;;4.53;;
45114;SDS011;30877;43.706;10.780;2022-11-11T15:50:16;17.65;;;13.15;;
45114;SDS011;30877;43.706;10.780;2022-11-11T15:53:12;32.40;;;25.38;;
45114;SDS011;30877;43.706;10.780;2022-11-11T15:56:00;28.17;;;23.02;;
45114;SDS011;30877;43.706;10.780;2022-11-11T15:58:46;13.70;;;10.60;;
45114;SDS011;30877;43.706;10.780;2022-11-11T16:01:33;9.57;;;6.63;;
45114;SDS011;30877;43.706;10.780;2022-11-11T16:04:20;6.80;;;5.50;;
45114;SDS011;30877;43.706;10.780;2022-11-11T16:07:30;3.78;;;2.05;;
45114;SDS011;30877;43.706;10.780;2022-11-11T16:10:24;3.13;;;2.05;;
45114;SDS011;30877;43.706;10.780;2022-11-11T16:13:13;2.17;;;1.98;;
45114;SDS011;30877;43.706;10.780;2022-11-11T16:16:03;4.65;;;2.63;;
45114;SDS011;30877;43.706;10.780;2022-11-11T16:18:53;3.42;;;2.72;;
45114;SDS011;30877;43.706;10.780;2022-11-11T16:21:44;5.22;;;2.80;;
45114;SDS011;30877;43.706;10.780;2022-11-11T16:24:37;2.95;;;2.53;;
45114;SDS011;30877;43.706;10.780;2022-11-11T16:27:27;2.92;;;2.30;;
45114;SDS011;30877;43.706;10.780;2022-11-11T16:30:17;3.30;;;1.77;;
45114;SDS011;30877;43.706;10.780;2022-11-11T16:33:19;3.67;;;2.08;;
45114;SDS011;30877;43.706;10.780;2022-11-11T16:36:18;5.60;;;1.85;;
45114;SDS011;30877;43.706;10.780;2022-11-11T16:39:14;2.67;;;1.90;;
45114;SDS011;30877;43.706;10.780;2022-11-11T16:42:05;2.13;;;1.58;;
45114;SDS011;30877;43.706;10.780;2022-11-11T16:45:03;4.22;;;1.90;;
45114;SDS011;30877;43.706;10.780;2022-11-11T16:47:50;2.22;;;1.52;;
45114;SDS011;30877;43.706;10.780;2022-11-11T16:50:40;2.27;;;1.50;;
45114;SDS011;30877;43.706;10.780;2022-11-11T16:53:39;3.30;;;1.70;;
45114;SDS011;30877;43.706;10.780;2022-11-11T16:56:28;5.22;;;1.50;;
45114;SDS011;30877;43.706;10.780;2022-11-11T16:59:18;5.05;;;2.58;;
45114;SDS011;30877;43.706;10.780;2022-11-11T17:02:27;2.90;;;2.50;;
45114;SDS011;30877;43.706;10.780;2022-11-11T17:05:14;2.30;;;1.92;;
45114;SDS011;30877;43.706;10.780;2022-11-11T17:08:00;2.38;;;1.98;;
45114;SDS011;30877;43.706;10.780;2022-11-11T17:14:30;3.80;;;3.38;;
45114;SDS011;30877;43.706;10.780;2022-11-11T17:17:18;3.50;;;3.00;;
45114;SDS011;30877;43.706;10.780;2022-11-11T17:20:06;2.53;;;1.83;;
45114;SDS011;30877;43.706;10.780;2022-11-11T17:22:55;4.60;;;1.98;;
45114;SDS011;30877;43.706;10.780;2022-11-11T17:25:42;2.65;;;1.83;;
45114;SDS011;30877;43.706;10.780;2022-11-11T17:28:29;3.25;;;2.10;;
45114;SDS011;30877;43.706;10.780;2022-11-11T17:31:19;3.38;;;1.90;;
45114;SDS011;30877;43.706;10.780;2022-11-11T17:34:05;2.03;;;1.58;;
45114;SDS011;30877;43.706;10.780;2022-11-11T17:36:53;2.90;;;1.90;;
45114;SDS011;30877;43.706;10.780;2022-11-11T17:39:39;3.72;;;2.25;;
45114;SDS011;30877;43.706;10.780;2022-11-11T17:42:29;3.17;;;2.22;;
45114;SDS011;30877;43.706;10.780;2022-11-11T17:45:16;2.60;;;1.88;;
45114;SDS011;30877;43.706;10.780;2022-11-11T17:48:04;2.97;;;2.10;;
45114;SDS011;30877;43.706;10.780;2022-11-11T17:50:51;3.38;;;2.13;;
45114;SDS011;30877;43.706;10.780;2022-11-11T17:53:38;5.35;;;2.63;;
45114;SDS011;30877;43.706;10.780;2022-11-11T17:56:24;3.15;;;2.47;;
45114;SDS011;30877;43.706;10.780;2022-11-11T17:59:11;4.10;;;3.08;;